Time;durP1;ratioP1;P1;durP2;ratioP2;P2;SDS_P1;SDS_P2;PMS_P1;PMS_P2;Temp;Humidity;BMP_temperature;BMP_pressure;BME280_temperature;BME280_humidity;BME280_pressure;Samples;Min_cycle;Max_cycle;Signal;HPM_P1;HPM_P2
2022/07/01 00:01:42;;;;;;;8.63;3.75;;;25.60;72.60;;;24.55;59.32;99674.06;10384864;27;97957;-90
2022/07/01 00:06:45;;;;;;;4.65;3.63;;;25.60;72.80;;;24.57;59.29;99674.59;10380183;27;99451;-90
2022/07/01 00:11:48;;;;;;;5.25;3.65;;;25.60;72.80;;;24.58;59.22;99680.84;10380734;27;98236;-90
2022/07/01 00:16:51;;;;;;;4.70;3.90;;;25.60;73.00;;;24.49;59.61;99675.16;10384744;27;96761;-90
2022/07/01 00:21:54;;;;;;;5.28;3.80;;;25.50;73.30;;;24.42;59.79;99669.19;10399681;27;96644;-90
2022/07/01 00:26:57;;;;;;;5.57;3.78;;;25.40;73.50;;;24.35;60.15;99672.19;10393508;27;98637;-90
2022/07/01 00:32:01;;;;;;;6.32;3.80;;;25.30;73.70;;;24.29;60.64;99675.94;10395767;27;96918;-90
2022/07/01 00:37:05;;;;;;;6.63;3.85;;;25.30;74.00;;;24.25;60.62;99675.66;10438593;27;96530;-90
2022/07/01 00:42:08;;;;;;;10.15;4.28;;;25.30;74.30;;;24.17;61.04;99680.78;10382343;27;96864;-89
2022/07/01 00:47:13;;;;;;;7.38;4.20;;;25.20;74.60;;;24.12;61.13;99676.19;10390151;27;96575;-89
2022/07/01 00:52:16;;;;;;;7.43;4.15;;;25.10;74.80;;;24.08;61.05;99677.00;10403071;27;97378;-88
2022/07/01 00:57:19;;;;;;;7.63;4.30;;;25.10;75.10;;;24.01;61.91;99682.69;10411898;27;96746;-90
2022/07/01 01:02:22;;;;;;;7.47;4.45;;;25.00;75.30;;;23.95;61.70;99675.63;10361329;27;96898;-89
2022/07/01 01:07:26;;;;;;;6.95;4.18;;;25.00;75.50;;;23.91;61.83;99683.47;10388740;27;99083;-89
2022/07/01 01:12:29;;;;;;;6.65;3.83;;;25.00;75.70;;;23.87;61.80;99682.41;10392971;27;98790;-90
2022/07/01 01:17:32;;;;;;;5.85;3.95;;;25.00;75.80;;;23.82;62.23;99678.84;10401735;27;98541;-89
2022/07/01 01:22:35;;;;;;;11.75;4.30;;;24.90;76.00;;;23.73;62.34;99681.25;10395211;27;96812;-89
2022/07/01 01:27:38;;;;;;;9.15;4.03;;;24.80;76.20;;;23.60;62.55;99679.84;10392863;27;97505;-89
2022/07/01 01:32:42;;;;;;;6.55;4.10;;;24.70;76.50;;;23.56;62.85;99695.00;10378154;27;97189;-90
2022/07/01 01:37:44;;;;;;;4.95;3.60;;;24.70;77.00;;;23.46;63.10;99687.66;10402397;27;96954;-89
2022/07/01 01:42:48;;;;;;;7.13;4.68;;;24.60;77.20;;;23.40;63.62;99709.59;10394553;27;97322;-89
2022/07/01 01:47:50;;;;;;;7.25;3.80;;;24.50;77.50;;;23.32;63.62;99707.34;10386862;27;98106;-89
2022/07/01 01:52:53;;;;;;;4.70;3.67;;;24.40;77.80;;;23.21;64.33;99704.63;10398564;27;98238;-89
2022/07/01 01:57:56;;;;;;;6.25;4.10;;;24.30;78.20;;;23.16;64.46;99701.88;10388418;27;97269;-89
2022/07/01 02:02:59;;;;;;;7.95;4.72;;;24.30;78.70;;;23.15;64.70;99691.28;10402093;27;98263;-89
2022/07/01 02:08:03;;;;;;;9.35;4.70;;;24.20;78.90;;;23.13;64.70;99688.03;10374255;27;98171;-89
2022/07/01 02:13:07;;;;;;;6.93;4.50;;;24.20;79.20;;;23.09;65.25;99701.31;10396024;27;97646;-89
2022/07/01 02:18:09;;;;;;;6.78;5.05;;;24.20;79.70;;;22.98;65.67;99687.94;10399804;27;98427;-89
2022/07/01 02:23:12;;;;;;;8.52;4.90;;;24.10;80.20;;;22.94;66.04;99698.47;10378270;27;98282;-89
2022/07/01 02:28:16;;;;;;;6.28;4.70;;;24.00;80.70;;;22.90;66.43;99700.88;10395004;28;97609;-89
2022/07/01 02:33:19;;;;;;;6.45;4.72;;;23.90;81.20;;;22.80;66.77;99700.00;10393540;27;97697;-89
2022/07/01 02:38:22;;;;;;;7.78;4.88;;;23.90;81.70;;;22.66;67.11;99683.34;10396969;27;97141;-89
2022/07/01 02:43:25;;;;;;;8.40;5.22;;;23.80;81.80;;;22.67;67.22;99707.47;10388854;27;96750;-89
2022/07/01 02:48:29;;;;;;;7.03;4.72;;;23.80;81.80;;;22.66;67.34;99713.94;10367459;27;98631;-88
2022/07/01 02:53:32;;;;;;;6.82;4.60;;;23.80;82.00;;;22.69;67.09;99713.44;10396452;27;98186;-90
2022/07/01 02:58:35;;;;;;;7.97;4.07;;;23.80;82.10;;;22.69;67.18;99713.44;10387019;27;98705;-89
2022/07/01 03:03:38;;;;;;;6.70;4.82;;;23.80;82.30;;;22.63;67.30;99721.78;10386532;27;96878;-89
2022/07/01 03:08:41;;;;;;;8.05;4.15;;;23.80;82.60;;;22.53;67.62;99719.00;10381058;27;96609;-89
2022/07/01 03:13:44;;;;;;;8.40;5.25;;;23.70;83.00;;;22.43;67.83;99720.56;10356530;28;97899;-89
2022/07/01 03:18:48;;;;;;;7.03;5.05;;;23.50;83.60;;;22.41;68.16;99719.16;10368061;28;96592;-89
2022/07/01 03:23:51;;;;;;;7.50;4.95;;;23.50;84.20;;;22.40;68.58;99733.78;10372992;28;98717;-88
2022/07/01 03:28:53;;;;;;;10.00;5.10;;;23.50;84.50;;;22.38;69.14;99727.81;10368523;27;98350;-89
2022/07/01 03:33:56;;;;;;;7.82;5.13;;;23.50;85.00;;;22.44;69.32;99748.44;10394143;28;97387;-89
2022/07/01 03:39:00;;;;;;;11.32;4.85;;;23.60;85.40;;;22.54;69.56;99761.25;10385744;28;99145;-89
2022/07/01 03:44:05;;;;;;;7.93;4.97;;;23.60;85.80;;;22.63;69.41;99760.53;10365415;28;97637;-89
2022/07/01 03:49:08;;;;;;;5.47;4.40;;;23.70;86.10;;;22.74;69.32;99774.97;10376154;28;97098;-89
2022/07/01 03:54:30;;;;;;;7.47;4.78;;;23.80;86.10;;;22.79;69.42;99780.44;10373403;27;98298;-90
2022/07/01 03:59:36;;;;;;;7.45;4.78;;;23.90;86.40;;;22.87;69.21;99788.13;10360885;28;96666;-89
2022/07/01 04:04:38;;;;;;;10.30;4.65;;;23.90;86.90;;;22.99;69.72;99793.34;10371804;28;96898;-89
2022/07/01 04:09:42;;;;;;;8.02;4.97;;;24.00;87.30;;;23.15;69.83;99780.72;10377268;27;96601;-90
2022/07/01 04:14:45;;;;;;;7.57;4.72;;;24.20;87.70;;;23.32;69.92;99780.56;10372404;28;97553;-89
2022/07/01 04:19:48;;;;;;;8.45;4.60;;;24.30;88.10;;;23.49;69.65;99775.78;10358494;28;97035;-90
2022/07/01 04:24:51;;;;;;;9.02;5.47;;;24.60;88.40;;;23.71;69.75;99783.81;10354311;28;98381;-90
2022/07/01 04:29:54;;;;;;;6.47;5.05;;;24.80;89.10;;;23.92;69.21;99782.78;10363473;28;98075;-90
2022/07/01 04:34:58;;;;;;;7.20;4.70;;;25.00;88.40;;;24.13;68.97;99780.16;10335242;28;97190;-90
2022/07/01 04:40:01;;;;;;;6.38;5.00;;;25.10;88.80;;;24.34;67.93;99775.56;10369390;28;98582;-90
2022/07/01 04:45:05;;;;;;;8.10;5.13;;;25.40;87.80;;;24.48;67.16;99768.59;10357908;28;97830;-91
2022/07/01 04:50:08;;;;;;;6.88;4.70;;;25.60;87.40;;;24.62;67.13;99766.16;10346124;28;98514;-91
2022/07/01 04:55:11;;;;;;;8.45;4.72;;;25.70;87.10;;;24.71;66.20;99751.75;10370347;28;96593;-90
2022/07/01 05:00:15;;;;;;;8.32;5.20;;;25.80;86.80;;;24.80;65.84;99760.97;10360186;28;96716;-90
2022/07/01 05:05:18;;;;;;;7.18;4.95;;;25.80;86.60;;;24.89;65.34;99763.16;10365357;28;97618;-89
2022/07/01 05:10:21;;;;;;;8.05;4.93;;;26.00;86.50;;;24.97;65.14;99770.78;10381005;28;96639;-89
2022/07/01 05:15:24;;;;;;;7.45;4.70;;;26.00;86.40;;;25.04;64.89;99771.31;10380069;28;97882;-89
2022/07/01 05:25:49;;;;;;;6.57;5.22;;;26.20;86.00;;;25.38;63.91;99785.16;10410175;27;96614;-88
2022/07/01 05:30:52;;;;;;;10.82;5.57;;;26.40;85.40;;;25.51;63.60;99781.84;10389455;27;97992;-88
2022/07/01 05:35:55;;;;;;;11.32;4.93;;;26.50;85.10;;;25.70;63.89;99795.66;10406918;28;96631;-90
2022/07/01 05:40:59;;;;;;;12.43;5.43;;;26.70;85.10;;;25.88;63.19;99792.34;10409259;27;97314;-89
2022/07/01 05:46:02;;;;;;;22.60;6.45;;;26.90;84.40;;;26.05;62.36;99794.72;10396210;27;97469;-89
2022/07/01 05:51:05;;;;;;;14.13;5.63;;;27.10;83.90;;;26.28;62.72;99798.69;10372987;27;96554;-89
2022/07/01 05:56:08;;;;;;;8.98;5.65;;;27.40;84.00;;;26.50;62.29;99808.38;10399821;27;97533;-89
2022/07/01 06:01:11;;;;;;;11.77;5.88;;;27.60;83.70;;;26.67;60.91;99806.91;10381518;27;96659;-90
2022/07/01 06:06:14;;;;;;;8.32;5.22;;;27.70;82.70;;;26.86;59.57;99807.03;10408695;27;96553;-89
2022/07/01 06:11:17;;;;;;;11.63;5.90;;;27.90;81.50;;;27.05;59.25;99811.78;10379366;27;96725;-89
2022/07/01 06:16:20;;;;;;;12.15;5.45;;;28.10;80.70;;;27.22;58.41;99806.75;10390922;27;97380;-89
2022/07/01 06:21:23;;;;;;;14.48;5.38;;;28.30;80.10;;;27.39;57.32;99809.84;10380749;28;97584;-90
2022/07/01 06:26:26;;;;;;;10.25;5.53;;;28.50;78.90;;;27.60;57.06;99817.84;10372771;27;96483;-89
2022/07/01 06:31:29;;;;;;;9.25;5.20;;;28.70;78.40;;;27.77;56.68;99803.75;10394236;27;96918;-89
2022/07/01 06:36:33;;;;;;;8.73;5.50;;;28.80;78.10;;;27.97;56.19;99804.31;10442757;28;96517;-88
2022/07/01 06:41:35;;;;;;;12.80;5.60;;;29.00;77.80;;;28.22;55.76;99816.00;10418809;27;96568;-90
2022/07/01 06:46:38;;;;;;;12.50;6.03;;;29.20;77.40;;;28.45;55.78;99803.44;10392902;27;97427;-89
2022/07/01 06:51:42;;;;;;;11.13;5.18;;;29.50;77.30;;;28.69;54.72;99804.16;10375045;27;98665;-90
2022/07/01 06:56:45;;;;;;;8.18;5.32;;;29.70;76.40;;;28.86;53.60;99795.41;10408695;28;96886;-89
2022/07/01 07:01:49;;;;;;;7.50;5.03;;;29.90;75.40;;;29.08;53.57;99802.16;10415637;27;98016;-91
2022/07/01 07:06:52;;;;;;;8.82;4.97;;;30.10;74.90;;;29.28;52.98;99793.63;10355994;27;98687;-89
2022/07/01 07:11:55;;;;;;;7.75;5.30;;;30.30;74.50;;;29.49;52.46;99800.31;10378573;27;96605;-90
2022/07/01 07:16:58;;;;;;;9.02;5.75;;;30.50;73.90;;;29.66;52.16;99790.72;10386444;27;98290;-90
2022/07/01 07:22:01;;;;;;;10.48;5.50;;;30.70;73.40;;;29.92;51.83;99780.84;10394314;27;98415;-90
2022/07/01 07:27:04;;;;;;;14.30;6.25;;;31.00;73.10;;;30.20;50.96;99789.06;10418696;27;96967;-89
2022/07/01 07:32:07;;;;;;;8.93;5.32;;;31.20;72.40;;;30.38;50.50;99786.19;10374690;27;96425;-89
2022/07/01 07:37:10;;;;;;;11.25;5.03;;;31.40;71.60;;;30.59;49.66;99782.97;10407859;27;98505;-89
2022/07/01 07:42:13;;;;;;;9.32;5.03;;;31.60;70.90;;;30.81;49.60;99787.66;10424494;27;97606;-89
2022/07/01 07:47:16;;;;;;;10.18;4.82;;;31.80;70.70;;;30.96;48.15;99786.47;10383973;27;96595;-90
2022/07/01 07:52:19;;;;;;;11.52;5.30;;;32.00;69.40;;;31.15;47.78;99776.09;10379092;27;96618;-89
2022/07/01 07:57:22;;;;;;;12.55;5.30;;;32.20;68.70;;;31.37;47.48;99778.03;10406149;28;96604;-90
2022/07/01 08:02:25;;;;;;;7.45;4.70;;;32.40;68.30;;;31.54;46.86;99785.50;10398544;27;98833;-88
2022/07/01 08:07:28;;;;;;;12.80;4.75;;;32.60;67.90;;;31.63;46.35;99784.41;10413607;27;97240;-89
2022/07/01 08:12:35;;;;;;;9.80;4.57;;;32.70;67.00;;;31.76;45.27;99790.91;10405458;28;97182;-90
2022/07/01 08:17:38;;;;;;;13.63;4.43;;;32.80;66.10;;;31.83;44.93;99777.53;10379843;27;98226;-87
2022/07/01 08:22:41;;;;;;;9.98;4.32;;;32.90;65.40;;;31.92;44.53;99781.13;10390556;27;97328;-86
2022/07/01 08:27:44;;;;;;;8.48;3.38;;;32.90;65.10;;;32.05;44.83;99776.63;10433542;27;96548;-87
2022/07/01 08:32:47;;;;;;;7.88;3.75;;;33.00;65.00;;;32.20;44.39;99778.06;10405258;27;96876;-87
2022/07/01 08:37:51;;;;;;;6.93;3.70;;;33.20;64.40;;;32.38;43.53;99787.97;10407238;28;96723;-86
2022/07/01 08:46:59;;;;;;;7.93;3.58;;;33.40;62.90;;;32.56;42.16;99772.28;10444178;27;97411;-88
2022/07/01 08:52:03;;;;;;;13.10;3.75;;;33.50;62.50;;;32.78;41.83;99778.75;10412015;28;97525;-91
2022/07/01 08:57:07;;;;;;;10.25;3.08;;;33.60;62.20;;;32.87;40.72;99776.78;10364951;28;96599;-86
2022/07/01 09:02:10;;;;;;;9.57;3.75;;;33.80;60.90;;;32.93;41.11;99781.03;10359365;28;97665;-86
2022/07/01 09:07:13;;;;;;;7.35;3.50;;;33.80;60.70;;;33.05;40.05;99778.41;10372408;28;96680;-86
2022/07/01 09:12:16;;;;;;;7.50;2.67;;;34.00;59.90;;;33.20;37.98;99771.56;10368147;28;97030;-85
2022/07/01 09:17:20;;;;;;;9.05;2.90;;;34.10;58.00;;;33.41;37.75;99774.44;10364207;27;96862;-87
2022/07/01 09:22:23;;;;;;;10.88;3.95;;;34.30;57.60;;;33.62;37.42;99769.78;10361999;28;99281;-89
2022/07/01 09:27:26;;;;;;;20.65;6.90;;;34.50;57.00;;;33.80;36.17;99773.25;10336019;28;96742;-88
2022/07/01 09:32:29;;;;;;;7.03;2.92;;;34.70;55.80;;;33.93;36.18;99758.44;10348116;28;97674;-90
2022/07/01 09:37:34;;;;;;;11.65;3.53;;;34.80;55.50;;;34.05;36.07;99758.50;10347504;28;97223;-86
2022/07/01 09:42:46;;;;;;;8.02;3.35;;;35.00;55.70;;;34.16;35.68;99756.16;10370343;27;99682;-88
2022/07/01 09:47:49;;;;;;;7.95;3.08;;;35.10;55.10;;;34.20;34.73;99762.63;10349062;28;96624;-88
2022/07/01 09:52:52;;;;;;;6.20;3.03;;;35.20;54.30;;;34.08;33.85;99762.56;10366355;28;96618;-85
2022/07/01 09:57:55;;;;;;;7.90;2.70;;;35.10;53.20;;;34.18;34.33;99742.84;10334325;28;98959;-88
2022/07/01 10:03:01;;;;;;;7.22;2.65;;;35.10;53.40;;;34.38;34.12;99748.72;10314949;28;98395;-86
2022/07/01 10:08:25;;;;;;;6.25;2.60;;;35.20;53.30;;;34.52;33.21;99749.25;10332709;28;97861;-87
2022/07/01 10:13:33;;;;;;;5.55;2.50;;;35.40;52.40;;;34.66;33.64;99743.44;10333644;28;97521;-84
2022/07/01 10:18:36;;;;;;;8.27;2.90;;;35.50;52.40;;;34.84;33.75;99731.88;10331719;28;96780;-86
2022/07/01 10:23:43;;;;;;;9.93;3.30;;;35.70;52.60;;;35.04;32.76;99741.28;10352621;28;96676;-83
2022/07/01 10:28:47;;;;;;;6.90;2.37;;;35.90;51.70;;;35.14;32.59;99729.75;10330233;28;96952;-87
2022/07/01 10:33:57;;;;;;;7.80;2.63;;;36.00;51.90;;;35.37;32.79;99721.03;10334828;28;98508;-86
2022/07/01 10:44:12;;;;;;;8.85;2.67;;;36.40;50.40;;;35.55;30.84;99724.41;10337524;28;98574;-83
2022/07/01 10:49:40;;;;;;;7.95;2.80;;;36.40;50.00;;;35.54;30.59;99725.56;10317305;28;96541;-85
2022/07/01 10:54:45;;;;;;;10.43;2.80;;;36.50;49.00;;;35.29;30.58;99725.53;10323959;28;96468;-86
2022/07/01 10:59:51;;;;;;;8.20;2.55;;;36.30;48.90;;;34.99;31.54;99726.88;10320954;28;99366;-86
2022/07/01 11:04:57;;;;;;;9.63;2.63;;;35.90;49.50;;;35.01;30.78;99724.56;10335997;28;96704;-86
2022/07/01 11:10:02;;;;;;;7.30;2.38;;;35.90;49.20;;;35.02;30.75;99718.72;10298494;28;96445;-82
2022/07/01 11:15:07;;;;;;;6.80;2.58;;;35.90;48.90;;;35.13;30.46;99719.88;10301195;28;96682;-85
2022/07/01 11:20:11;;;;;;;7.22;2.65;;;36.00;48.60;;;35.38;29.79;99700.53;10314421;28;96637;-85
2022/07/01 11:25:14;;;;;;;9.77;2.63;;;36.20;48.40;;;35.40;29.98;99710.13;10340030;28;97102;-86
2022/07/01 11:30:19;;;;;;;6.15;2.42;;;36.30;48.30;;;35.67;29.74;99702.28;10318048;28;97478;-84
2022/07/01 11:40:53;;;;;;;7.43;2.55;;;36.70;47.10;;;35.97;28.29;99682.66;10337556;28;96790;-84
2022/07/01 11:46:01;;;;;;;6.55;2.63;;;36.80;46.50;;;36.09;27.62;99675.13;10330273;28;96687;-85
2022/07/01 11:51:14;;;;;;;6.03;2.25;;;37.00;46.00;;;35.95;28.10;99673.94;10356835;28;96492;-86
2022/07/01 11:56:33;;;;;;;5.38;2.28;;;36.90;46.30;;;35.97;29.07;99672.41;10344058;28;98018;-86
2022/07/01 12:01:39;;;;;;;8.15;2.75;;;36.90;47.40;;;35.88;29.41;99663.44;10332970;28;96733;-84
2022/07/01 12:06:42;;;;;;;6.68;2.22;;;36.70;47.30;;;36.00;28.78;99670.91;10334112;28;96627;-85
2022/07/01 12:11:48;;;;;;;5.10;2.17;;;36.80;46.70;;;36.29;27.89;99651.22;10322060;28;96625;-83
2022/07/01 12:16:58;;;;;;;6.18;2.63;;;37.10;46.40;;;36.47;28.27;99639.81;10313669;28;96787;-84
2022/07/01 12:22:05;;;;;;;7.15;2.28;;;37.30;46.40;;;36.41;28.32;99634.56;10297445;28;96516;-85
2022/07/01 12:27:09;;;;;;;10.00;2.65;;;37.30;46.70;;;36.61;28.60;99637.44;10302725;28;96869;-83
2022/07/01 12:32:25;;;;;;;;;;;37.40;46.70;;;36.67;27.23;99631.28;10297596;28;99125;-86
2022/07/01 12:37:33;;;;;;;11.55;3.15;;;37.50;45.80;;;36.93;26.82;99633.53;10316523;28;98994;-84
2022/07/01 12:42:44;;;;;;;7.32;2.40;;;37.80;45.10;;;37.13;26.35;99625.31;10328146;28;97467;-85
2022/07/01 12:47:54;;;;;;;7.47;2.80;;;38.10;44.80;;;37.32;26.19;99621.78;10354621;28;96809;-86
2022/07/01 12:53:11;;;;;;;8.98;2.55;;;38.20;44.50;;;37.42;26.34;99602.66;10347207;28;97202;-84
2022/07/01 12:58:27;;;;;;;7.18;2.55;;;38.30;44.70;;;37.72;25.18;99608.44;10325612;28;96968;-82
2022/07/01 13:03:29;;;;;;;8.82;2.38;;;38.50;44.00;;;37.88;25.43;99605.63;10322429;28;98586;-81
2022/07/01 13:08:40;;;;;;;5.45;2.03;;;38.60;43.90;;;38.15;24.85;99609.34;10341116;28;96868;-83
2022/07/01 13:13:43;;;;;;;4.10;2.30;;;38.90;43.30;;;38.32;23.31;99596.97;10329597;28;96568;-83
2022/07/01 13:18:46;;;;;;;7.22;2.42;;;39.10;42.00;;;38.32;23.38;99590.63;10334937;28;96607;-79
2022/07/01 13:23:48;;;;;;;5.95;2.30;;;39.10;41.80;;;38.40;23.04;99593.19;10333074;28;100184;-82
2022/07/01 13:28:51;;;;;;;5.82;2.42;;;39.20;41.60;;;38.58;23.03;99585.16;10365648;28;96640;-81
2022/07/01 13:33:54;;;;;;;5.10;1.70;;;39.30;41.40;;;38.62;23.14;99585.19;10342121;28;97667;-84
2022/07/01 13:38:58;;;;;;;5.20;2.35;;;39.40;41.40;;;38.69;22.76;99588.13;10345404;28;96567;-81
2022/07/01 13:44:00;;;;;;;6.60;2.45;;;39.60;41.50;;;38.51;22.16;99583.06;10351598;28;99724;-82
2022/07/01 13:49:04;;;;;;;7.22;2.25;;;39.50;40.20;;;38.37;22.24;99566.16;10335266;28;96607;-84
2022/07/01 13:54:07;;;;;;;10.15;2.55;;;39.30;40.10;;;38.55;22.58;99570.03;10340073;28;96881;-84
2022/07/01 13:59:10;;;;;;;8.70;2.60;;;39.50;40.30;;;38.54;22.05;99568.44;10322379;28;96614;-82
2022/07/01 14:04:13;;;;;;;7.50;2.40;;;39.60;40.00;;;38.46;21.90;99574.25;10328972;28;98111;-85
2022/07/01 14:09:17;;;;;;;5.88;2.53;;;39.50;39.50;;;38.48;21.42;99575.47;10324395;28;98699;-85
2022/07/01 14:14:19;;;;;;;8.05;2.15;;;39.50;39.30;;;38.43;20.37;99556.34;10328355;28;98487;-84
2022/07/01 14:19:22;;;;;;;6.53;2.00;;;39.50;38.40;;;38.50;20.69;99566.75;10330528;28;96727;-83
2022/07/01 14:24:26;;;;;;;7.68;2.50;;;39.50;38.20;;;38.58;19.93;99562.94;10340019;28;96611;-83
2022/07/01 14:29:29;;;;;;;6.38;1.92;;;39.60;37.70;;;38.70;19.59;99567.50;10345995;28;96733;-84
2022/07/01 14:34:32;;;;;;;3.80;1.40;;;39.70;37.00;;;38.84;18.95;99548.31;10310993;28;96893;-85
2022/07/01 14:39:35;;;;;;;4.93;1.83;;;39.80;36.70;;;38.81;18.51;99549.88;10318568;28;98849;-82
2022/07/01 14:44:38;;;;;;;4.82;1.90;;;39.70;35.90;;;38.80;18.06;99555.78;10334728;28;97968;-88
2022/07/01 14:49:44;;;;;;;5.55;2.20;;;39.70;35.40;;;38.80;17.82;99558.56;10334188;28;97259;-86
2022/07/01 14:54:47;;;;;;;6.47;2.20;;;39.60;35.20;;;38.56;18.47;99562.50;10319451;28;98316;-85
2022/07/01 14:59:51;;;;;;;5.53;2.10;;;39.50;35.60;;;38.43;18.89;99567.44;10332789;28;96725;-84
2022/07/01 15:04:54;;;;;;;5.53;2.30;;;39.40;36.20;;;38.47;19.90;99565.53;10315864;28;97470;-87
2022/07/01 15:09:59;;;;;;;7.05;2.38;;;39.20;37.30;;;38.39;19.53;99569.38;10303803;28;98486;-87
2022/07/01 15:15:03;;;;;;;5.65;2.35;;;39.20;36.90;;;38.50;19.51;99556.47;10310639;28;98534;-89
2022/07/01 15:20:06;;;;;;;6.22;1.83;;;39.30;36.70;;;38.56;18.89;99563.28;10311932;28;98843;-84
2022/07/01 15:25:10;;;;;;;5.65;2.15;;;39.30;36.40;;;38.49;19.10;99565.16;10323841;28;99321;-86
2022/07/01 15:30:13;;;;;;;5.88;2.20;;;39.30;36.50;;;38.51;19.29;99551.72;10315544;28;97666;-87
2022/07/01 15:35:16;;;;;;;6.22;2.38;;;39.20;36.80;;;38.47;18.62;99554.44;10317120;28;97257;-85
2022/07/01 15:40:19;;;;;;;7.68;2.63;;;39.30;36.20;;;38.36;18.85;99549.88;10325110;28;96731;-85
2022/07/01 15:45:23;;;;;;;7.15;2.42;;;39.10;36.30;;;38.33;19.35;99548.66;10311669;28;97810;-89
2022/07/01 15:50:26;;;;;;;5.72;2.42;;;39.10;36.60;;;38.42;20.11;99540.06;10307818;28;97483;-90
2022/07/01 15:55:29;;;;;;;6.60;2.88;;;39.20;37.30;;;38.47;19.91;99543.34;10307874;28;97175;-90
2022/07/01 16:00:32;;;;;;;8.88;2.53;;;39.30;37.30;;;38.49;20.33;99537.41;10347403;28;96700;-91
2022/07/01 16:05:36;;;;;;;11.80;3.33;;;39.40;37.60;;;38.56;20.76;99546.63;10331426;28;96757;-87
2022/07/01 16:10:53;;;;;;;10.68;2.88;;;39.40;38.60;;;38.51;20.69;99544.22;10327114;28;98941;-87
2022/07/01 16:15:59;;;;;;;6.43;2.30;;;39.50;38.10;;;38.58;21.28;99534.38;10339769;28;97072;-93
2022/07/01 16:21:03;;;;;;;6.55;2.70;;;39.50;38.20;;;38.50;20.99;99545.34;10319587;28;97798;-94
2022/07/01 16:26:10;;;;;;;5.18;2.53;;;39.60;38.00;;;38.59;21.03;99544.31;10341365;28;97471;-94
2022/07/01 16:31:16;;;;;;;6.82;2.85;;;39.70;38.20;;;38.51;21.58;99540.63;10322103;28;98914;-95
2022/07/01 16:36:30;;;;;;;7.78;3.05;;;39.70;38.50;;;38.35;21.43;99537.97;10326230;28;97918;-92
2022/07/01 16:42:16;;;;;;;12.32;3.20;;;39.60;38.50;;;38.03;21.74;99554.84;10306136;28;99000;-90
2022/07/01 16:47:31;;;;;;;8.10;3.65;;;39.30;38.40;;;37.89;22.77;99542.66;10349790;28;97790;-96
2022/07/01 16:52:45;;;;;;;9.48;3.65;;;39.00;39.60;;;37.80;22.62;99545.63;10333772;28;96586;-93
2022/07/01 16:57:50;;;;;;;8.43;3.22;;;38.90;39.50;;;37.77;23.06;99554.66;10337012;28;97567;-94
2022/07/01 17:03:02;;;;;;;7.32;3.28;;;38.90;39.80;;;37.68;23.65;99554.09;10349627;28;96514;-96
2022/07/01 17:08:12;;;;;;;10.88;3.05;;;38.80;40.30;;;37.57;23.64;99553.09;10350144;28;96478;-94
2022/07/01 17:13:17;;;;;;;9.00;3.10;;;38.70;40.50;;;37.37;24.36;99546.75;10334969;28;96436;-96
2022/07/01 17:18:20;;;;;;;9.13;3.45;;;38.60;41.10;;;37.15;25.06;99554.53;10307297;28;96513;-96
2022/07/01 17:23:39;;;;;;;11.18;3.50;;;38.30;41.30;;;37.06;25.51;99562.22;10355504;28;97044;-95
2022/07/01 17:28:58;;;;;;;9.32;3.72;;;38.10;41.80;;;36.77;25.71;99558.00;10332710;28;96518;-95
2022/07/01 17:34:04;;;;;;;8.32;3.42;;;37.90;42.10;;;36.54;25.82;99565.31;10331383;28;96607;-94
2022/07/01 17:39:22;;;;;;;7.53;3.17;;;37.60;42.30;;;36.20;26.49;99556.50;10353460;28;96599;-96
2022/07/01 17:44:27;;;;;;;11.15;4.25;;;37.40;42.90;;;35.83;27.99;99559.44;10340921;28;96548;-95
2022/07/01 17:49:32;;;;;;;12.45;3.65;;;36.90;43.80;;;35.40;27.86;99560.13;10315007;28;98353;-94
2022/07/01 17:54:36;;;;;;;10.27;3.47;;;36.50;44.10;;;35.02;28.39;99566.06;10324560;28;96624;-93
2022/07/01 17:59:41;;;;;;;9.18;3.50;;;36.00;44.40;;;34.66;28.75;99570.41;10323654;28;97523;-92
2022/07/01 18:04:48;;;;;;;10.60;4.30;;;35.70;44.90;;;34.37;29.75;99581.59;10340941;28;96691;-90
2022/07/01 18:09:51;;;;;;;6.85;3.40;;;35.30;45.30;;;34.07;30.01;99595.56;10312723;28;96676;-93
2022/07/01 18:15:10;;;;;;;12.80;3.88;;;35.10;45.80;;;33.79;30.50;99601.59;10309519;28;97632;-91
2022/07/01 18:20:27;;;;;;;11.30;3.60;;;34.80;46.00;;;33.60;31.16;99605.97;10353495;28;96551;-91
2022/07/01 18:25:34;;;;;;;11.48;4.38;;;34.60;46.50;;;33.32;31.52;99616.66;10342615;28;98412;-93
2022/07/01 18:30:44;;;;;;;11.02;4.40;;;34.30;47.30;;;33.01;32.63;99617.81;10346221;28;96564;-90
2022/07/01 18:35:50;;;;;;;11.35;4.40;;;33.90;47.80;;;32.71;32.77;99630.69;10319282;28;96608;-91
2022/07/01 18:40:52;;;;;;;9.85;4.20;;;33.70;48.50;;;32.44;33.72;99643.69;10303392;28;98738;-92
2022/07/01 18:45:55;;;;;;;8.80;3.95;;;33.40;49.10;;;32.17;34.20;99650.34;10309565;28;96548;-90
2022/07/01 18:50:58;;;;;;;8.82;4.13;;;33.10;49.60;;;31.99;34.52;99656.19;10307050;28;97501;-91
2022/07/01 18:56:01;;;;;;;10.32;4.13;;;32.90;49.90;;;31.77;34.69;99663.41;10297988;28;96452;-90
2022/07/01 19:01:04;;;;;;;8.48;3.88;;;32.60;50.00;;;31.60;35.18;99680.66;10328413;28;96570;-89
2022/07/01 19:06:08;;;;;;;7.30;3.67;;;32.50;50.40;;;31.42;35.09;99692.75;10301439;28;96620;-92
2022/07/01 19:11:11;;;;;;;9.10;3.67;;;32.20;50.60;;;31.26;35.48;99703.38;10318652;28;96548;-88
2022/07/01 19:16:14;;;;;;;10.70;3.88;;;32.10;50.70;;;31.12;35.52;99697.94;10339724;28;96620;-89
2022/07/01 19:21:17;;;;;;;7.65;3.45;;;31.90;50.80;;;30.98;35.77;99702.72;10328180;28;96955;-91
2022/07/01 19:26:21;;;;;;;10.70;3.60;;;31.80;50.90;;;30.88;35.79;99713.97;10321125;28;96514;-91
2022/07/01 19:31:24;;;;;;;8.68;3.72;;;31.60;51.00;;;30.77;36.07;99718.09;10329079;28;98712;-91
2022/07/01 19:36:29;;;;;;;9.50;4.03;;;31.60;51.20;;;30.64;35.99;99726.03;10282975;28;96703;-88
2022/07/01 19:41:33;;;;;;;10.30;3.63;;;31.50;51.20;;;30.53;36.37;99724.69;10338702;28;96571;-88
2022/07/01 19:46:36;;;;;;;11.40;3.72;;;31.40;51.40;;;30.43;36.38;99735.91;10341226;28;96591;-89
2022/07/01 19:51:39;;;;;;;9.90;3.30;;;31.30;51.50;;;30.35;36.49;99745.69;10353466;28;98873;-89
2022/07/01 19:56:42;;;;;;;8.70;3.45;;;31.20;51.40;;;30.31;36.34;99752.09;10323401;28;96655;-88
2022/07/01 20:01:45;;;;;;;9.23;3.50;;;31.10;51.30;;;30.23;36.50;99752.81;10352139;28;98873;-88
2022/07/01 20:06:48;;;;;;;34.40;5.63;;;31.10;51.90;;;30.16;37.66;99809.97;10329908;28;98153;-88
2022/07/01 20:11:51;;;;;;;35.30;6.25;;;31.00;52.60;;;29.58;41.32;99825.91;10315591;28;96709;-84
2022/07/01 20:16:57;;;;;;;25.55;4.90;;;30.40;56.50;;;28.75;43.80;99841.25;10313484;28;96730;-84
2022/07/01 20:22:00;;;;;;;29.48;4.05;;;29.60;58.70;;;28.03;45.42;99850.69;10308743;28;96685;-84
2022/07/01 20:27:03;;;;;;;16.70;3.80;;;28.90;60.30;;;27.32;47.29;99887.69;10307769;28;98449;-82
2022/07/01 20:32:07;;;;;;;18.77;3.17;;;28.20;61.70;;;26.75;48.72;99895.47;10321482;28;96604;-84
2022/07/01 20:37:10;;;;;;;12.52;2.83;;;27.60;62.80;;;26.20;50.43;99872.00;10338746;28;96546;-83
2022/07/01 20:42:13;;;;;;;11.93;3.03;;;27.00;64.50;;;25.72;51.81;99888.72;10317423;28;96734;-88
2022/07/01 20:47:19;;;;;;;5.82;2.17;;;26.50;65.90;;;25.31;53.61;99905.09;10323259;28;96837;-86
2022/07/01 20:52:30;;;;;;;9.57;2.92;;;26.20;67.40;;;24.98;54.75;99914.56;10291877;28;96815;-84
2022/07/01 20:57:34;;;;;;;12.77;3.00;;;25.80;68.70;;;24.78;56.07;99912.63;10310216;28;98004;-82
2022/07/01 21:02:37;;;;;;;9.85;2.70;;;25.60;69.90;;;24.57;57.52;99900.06;10333504;28;96754;-81
2022/07/01 21:07:47;;;;;;;7.85;2.67;;;25.40;71.10;;;24.42;57.89;99916.31;10334749;28;97517;-89
2022/07/01 21:12:50;;;;;;;15.93;2.85;;;25.30;71.80;;;24.33;58.83;99896.97;10324884;28;97778;-81
2022/07/01 21:17:54;;;;;;;9.98;3.35;;;25.10;72.70;;;24.21;59.30;99888.22;10312206;28;97855;-79
2022/07/01 21:22:59;;;;;;;11.40;3.30;;;25.00;73.10;;;24.18;59.35;99876.00;10340606;28;97814;-81